createdAt,value
2023-05-19T00:00:16.367Z,420.00
2023-05-19T00:01:16.413Z,421.00
2023-05-19T00:02:16.544Z,420.00
2023-05-19T00:03:16.692Z,420.00
2023-05-19T00:04:16.621Z,425.00
2023-05-19T00:05:16.660Z,422.00
2023-05-19T00:06:16.890Z,423.00
2023-05-19T00:07:16.757Z,424.00
2023-05-19T00:08:16.823Z,428.00
2023-05-19T00:09:16.863Z,430.00
2023-05-19T00:10:16.932Z,434.00
2023-05-19T00:11:16.976Z,434.00
2023-05-19T00:12:17.050Z,434.00
2023-05-19T00:13:17.097Z,432.00
2023-05-19T00:14:17.164Z,430.00
2023-05-19T00:15:17.199Z,429.00
2023-05-19T00:16:17.288Z,427.00
2023-05-19T00:17:17.308Z,431.00
2023-05-19T00:18:17.357Z,431.00
2023-05-19T00:19:17.520Z,431.00
2023-05-19T00:20:17.424Z,432.00
2023-05-19T00:21:17.516Z,432.00
2023-05-19T00:22:17.534Z,432.00
2023-05-19T00:23:17.606Z,432.00
2023-05-19T00:24:17.632Z,430.00
2023-05-19T00:25:17.726Z,427.00
2023-05-19T00:26:17.786Z,428.00
2023-05-19T00:27:17.834Z,425.00
2023-05-19T00:28:17.912Z,425.00
2023-05-19T00:29:17.940Z,424.00
2023-05-19T00:30:18.033Z,424.00
2023-05-19T00:31:18.068Z,427.00
2023-05-19T00:32:18.141Z,430.00
2023-05-19T00:33:18.130Z,428.00
2023-05-19T00:34:18.174Z,426.00
2023-05-19T00:35:18.250Z,428.00
2023-05-19T00:36:18.289Z,429.00
2023-05-19T00:37:18.318Z,431.00
2023-05-19T00:38:18.381Z,433.00
2023-05-19T00:39:18.432Z,434.00
2023-05-19T00:40:18.477Z,432.00
2023-05-19T00:41:18.536Z,431.00
2023-05-19T00:42:18.552Z,433.00
2023-05-19T00:43:18.621Z,434.00
2023-05-19T00:44:18.643Z,433.00
2023-05-19T00:45:18.684Z,435.00
2023-05-19T00:46:18.792Z,433.00
2023-05-19T00:47:18.787Z,435.00
2023-05-19T00:48:18.816Z,434.00
2023-05-19T00:49:18.830Z,433.00
2023-05-19T00:50:18.862Z,435.00
2023-05-19T00:51:18.888Z,432.00
2023-05-19T00:52:18.954Z,430.00
2023-05-19T00:53:18.970Z,427.00
2023-05-19T00:54:19.003Z,428.00
2023-05-19T00:55:18.988Z,428.00
2023-05-19T00:56:19.025Z,428.00
2023-05-19T00:57:19.043Z,426.00
2023-05-19T00:58:19.077Z,425.00
2023-05-19T00:59:19.136Z,424.00
2023-05-19T01:00:19.155Z,423.00
2023-05-19T01:01:19.248Z,423.00
2023-05-19T01:02:19.215Z,425.00
2023-05-19T01:03:19.300Z,427.00
2023-05-19T01:04:19.250Z,427.00
2023-05-19T01:05:19.303Z,427.00
2023-05-19T01:06:19.453Z,425.00
2023-05-19T01:07:19.343Z,424.00
2023-05-19T01:08:19.347Z,426.00
2023-05-19T01:09:19.404Z,424.00
2023-05-19T01:10:19.414Z,424.00
2023-05-19T01:11:19.441Z,425.00
2023-05-19T01:12:19.428Z,427.00
2023-05-19T01:13:19.436Z,428.00
2023-05-19T01:14:19.473Z,427.00
2023-05-19T01:15:19.482Z,427.00
2023-05-19T01:16:19.501Z,428.00
2023-05-19T01:17:19.495Z,429.00
2023-05-19T01:18:19.499Z,426.00
2023-05-19T01:19:19.672Z,427.00
2023-05-19T01:20:19.588Z,428.00
2023-05-19T01:21:19.575Z,429.00
2023-05-19T01:22:19.589Z,431.00
2023-05-19T01:23:19.604Z,432.00
2023-05-19T01:24:19.613Z,432.00
2023-05-19T01:25:19.646Z,430.00
2023-05-19T01:26:19.660Z,428.00
2023-05-19T01:27:19.654Z,429.00
2023-05-19T01:28:19.664Z,430.00
2023-05-19T01:29:19.657Z,432.00
2023-05-19T01:30:19.644Z,431.00
2023-05-19T01:31:19.701Z,431.00
2023-05-19T01:32:19.651Z,431.00
2023-05-19T01:33:19.638Z,430.00
2023-05-19T01:34:19.641Z,430.00
2023-05-19T01:35:19.644Z,429.00
2023-05-19T01:36:19.682Z,429.00
2023-05-19T01:37:19.696Z,429.00
2023-05-19T01:38:19.736Z,431.00
2023-05-19T01:39:19.742Z,432.00
2023-05-19T01:40:19.731Z,433.00
2023-05-19T01:41:19.728Z,432.00
2023-05-19T01:42:19.734Z,433.00
2023-05-19T01:43:19.729Z,432.00
2023-05-19T01:44:19.729Z,432.00
2023-05-19T01:45:19.726Z,436.00
2023-05-19T01:46:19.762Z,436.00
2023-05-19T01:47:19.700Z,438.00
2023-05-19T01:48:19.736Z,435.00
2023-05-19T01:49:19.703Z,434.00
2023-05-19T01:50:19.730Z,432.00
2023-05-19T01:51:19.748Z,432.00
2023-05-19T01:52:19.766Z,430.00
2023-05-19T01:53:19.776Z,428.00
2023-05-19T01:54:19.793Z,425.00
2023-05-19T01:55:19.825Z,427.00
2023-05-19T01:56:19.835Z,427.00
2023-05-19T01:57:19.832Z,430.00
2023-05-19T01:58:19.873Z,430.00
2023-05-19T01:59:19.887Z,430.00
2023-05-19T02:00:21.350Z,429.00
2023-05-19T02:01:19.993Z,430.00
2023-05-19T02:02:19.979Z,429.00
2023-05-19T02:03:19.987Z,428.00
2023-05-19T02:04:20.010Z,429.00
2023-05-19T02:05:19.986Z,432.00
2023-05-19T02:06:20.047Z,433.00
2023-05-19T02:07:20.018Z,433.00
2023-05-19T02:08:20.031Z,431.00
2023-05-19T02:09:19.996Z,430.00
2023-05-19T02:10:20.000Z,428.00
2023-05-19T02:11:20.038Z,427.00
2023-05-19T02:12:20.032Z,427.00
2023-05-19T02:13:20.033Z,426.00
2023-05-19T02:14:20.036Z,425.00
2023-05-19T02:15:20.044Z,426.00
2023-05-19T02:16:20.126Z,427.00
2023-05-19T02:17:20.092Z,427.00
2023-05-19T02:18:20.078Z,426.00
2023-05-19T02:19:20.217Z,425.00
2023-05-19T02:20:20.106Z,425.00
2023-05-19T02:21:20.107Z,428.00
2023-05-19T02:22:20.124Z,426.00
2023-05-19T02:23:20.131Z,426.00
2023-05-19T02:24:20.146Z,425.00
2023-05-19T02:25:20.172Z,424.00
2023-05-19T02:26:20.162Z,425.00
2023-05-19T02:27:20.163Z,425.00
2023-05-19T02:28:20.158Z,424.00
2023-05-19T02:29:20.161Z,424.00
2023-05-19T02:30:20.156Z,422.00
2023-05-19T02:31:20.226Z,420.00
2023-05-19T02:32:20.186Z,421.00
2023-05-19T02:33:20.170Z,422.00
2023-05-19T02:34:20.155Z,424.00
2023-05-19T02:35:20.177Z,426.00
2023-05-19T02:36:20.152Z,427.00
2023-05-19T02:37:20.145Z,426.00
2023-05-19T02:38:20.165Z,426.00
2023-05-19T02:39:20.182Z,425.00
2023-05-19T02:40:20.157Z,423.00
2023-05-19T02:41:20.145Z,421.00
2023-05-19T02:42:20.141Z,421.00
2023-05-19T02:43:20.139Z,421.00
2023-05-19T02:44:20.143Z,421.00
2023-05-19T02:45:20.156Z,420.00
2023-05-19T02:46:20.196Z,420.00
2023-05-19T02:47:20.156Z,419.00
2023-05-19T02:48:20.143Z,420.00
2023-05-19T02:49:20.155Z,419.00
2023-05-19T02:50:20.166Z,420.00
2023-05-19T02:51:20.177Z,419.00
2023-05-19T02:52:20.155Z,421.00
2023-05-19T02:53:20.167Z,419.00
2023-05-19T02:54:20.154Z,419.00
2023-05-19T02:55:20.146Z,418.00
2023-05-19T02:56:20.159Z,419.00
2023-05-19T02:57:20.166Z,420.00
2023-05-19T02:58:20.140Z,420.00
2023-05-19T02:59:20.175Z,423.00
2023-05-19T03:00:20.161Z,423.00
2023-05-19T03:01:20.173Z,424.00
2023-05-19T03:02:20.165Z,424.00
2023-05-19T03:03:20.259Z,424.00
2023-05-19T03:04:20.159Z,423.00
2023-05-19T03:05:20.167Z,423.00
2023-05-19T03:06:20.174Z,423.00
2023-05-19T03:07:20.179Z,423.00
2023-05-19T03:08:20.176Z,424.00
2023-05-19T03:09:20.168Z,425.00
2023-05-19T03:10:20.167Z,424.00
2023-05-19T03:11:20.173Z,424.00
2023-05-19T03:12:20.177Z,422.00
2023-05-19T03:13:20.156Z,421.00
2023-05-19T03:14:20.154Z,422.00
2023-05-19T03:15:20.156Z,423.00
2023-05-19T03:16:20.206Z,423.00
2023-05-19T03:17:20.227Z,424.00
2023-05-19T03:18:20.198Z,426.00
2023-05-19T03:19:20.288Z,423.00
2023-05-19T03:20:20.187Z,423.00
2023-05-19T03:21:20.199Z,422.00
2023-05-19T03:22:20.201Z,423.00
2023-05-19T03:23:20.233Z,422.00
2023-05-19T03:24:20.247Z,422.00
2023-05-19T03:25:20.266Z,422.00
2023-05-19T03:26:20.263Z,422.00
2023-05-19T03:27:20.264Z,420.00
2023-05-19T03:28:20.264Z,420.00
2023-05-19T03:29:20.299Z,420.00
2023-05-19T03:30:20.298Z,421.00
2023-05-19T03:31:20.304Z,422.00
2023-05-19T03:32:20.331Z,423.00
2023-05-19T03:33:20.387Z,424.00
2023-05-19T03:34:20.283Z,423.00
2023-05-19T03:35:20.300Z,423.00
2023-05-19T03:36:20.292Z,426.00
2023-05-19T03:37:20.273Z,426.00
2023-05-19T03:38:20.281Z,424.00
2023-05-19T03:39:20.292Z,426.00
2023-05-19T03:40:20.274Z,426.00
2023-05-19T03:41:20.300Z,429.00
2023-05-19T03:42:20.283Z,431.00
2023-05-19T03:43:20.276Z,430.00
2023-05-19T03:44:20.268Z,430.00
2023-05-19T03:45:20.260Z,429.00
2023-05-19T03:46:20.385Z,429.00
2023-05-19T03:47:20.255Z,430.00
2023-05-19T03:48:21.391Z,431.00
2023-05-19T03:49:20.266Z,431.00
2023-05-19T03:50:20.265Z,428.00
2023-05-19T03:51:20.245Z,429.00
2023-05-19T03:52:20.251Z,429.00
2023-05-19T03:53:20.256Z,430.00
2023-05-19T03:54:20.240Z,430.00
2023-05-19T03:55:20.281Z,428.00
2023-05-19T03:56:20.228Z,428.00
2023-05-19T03:57:20.221Z,430.00
2023-05-19T03:58:20.219Z,427.00
2023-05-19T03:59:20.224Z,428.00
2023-05-19T04:00:20.219Z,428.00
2023-05-19T04:01:20.215Z,428.00
2023-05-19T04:02:20.211Z,427.00
2023-05-19T04:03:20.303Z,425.00
2023-05-19T04:04:20.219Z,424.00
2023-05-19T04:05:20.192Z,426.00
2023-05-19T04:06:20.185Z,425.00
2023-05-19T04:07:20.180Z,424.00
2023-05-19T04:08:20.161Z,423.00
2023-05-19T04:09:20.166Z,421.00
2023-05-19T04:10:20.170Z,420.00
2023-05-19T04:11:20.161Z,422.00
2023-05-19T04:12:20.159Z,426.00
2023-05-19T04:13:20.140Z,427.00
2023-05-19T04:14:20.144Z,426.00
2023-05-19T04:15:20.144Z,428.00
2023-05-19T04:16:20.186Z,427.00
2023-05-19T04:17:20.142Z,428.00
2023-05-19T04:18:20.138Z,427.00
2023-05-19T04:19:20.194Z,428.00
2023-05-19T04:20:20.127Z,429.00
2023-05-19T04:21:20.115Z,428.00
2023-05-19T04:22:20.105Z,427.00
2023-05-19T04:23:20.113Z,426.00
2023-05-19T04:24:20.120Z,423.00
2023-05-19T04:25:20.143Z,423.00
2023-05-19T04:26:20.123Z,423.00
2023-05-19T04:27:20.112Z,422.00
2023-05-19T04:28:20.137Z,422.00
2023-05-19T04:29:20.109Z,422.00
2023-05-19T04:30:20.097Z,422.00
2023-05-19T04:31:20.154Z,422.00
2023-05-19T04:32:20.114Z,423.00
2023-05-19T04:33:20.092Z,422.00
2023-05-19T04:34:20.194Z,421.00
2023-05-19T04:35:20.108Z,420.00
2023-05-19T04:36:20.066Z,422.00
2023-05-19T04:37:20.086Z,422.00
2023-05-19T04:38:20.102Z,423.00
2023-05-19T04:39:20.084Z,423.00
2023-05-19T04:40:20.079Z,421.00
2023-05-19T04:41:20.094Z,422.00
2023-05-19T04:42:20.108Z,422.00
2023-05-19T04:43:20.116Z,422.00
2023-05-19T04:44:20.117Z,420.00
2023-05-19T04:45:20.127Z,421.00
2023-05-19T04:46:20.171Z,420.00
2023-05-19T04:47:20.144Z,421.00
2023-05-19T04:48:20.154Z,422.00
2023-05-19T04:49:20.183Z,422.00
2023-05-19T04:50:20.195Z,422.00
2023-05-19T04:51:20.191Z,423.00
2023-05-19T04:52:20.260Z,424.00
2023-05-19T04:53:20.281Z,421.00
2023-05-19T04:54:20.326Z,422.00
2023-05-19T04:55:20.404Z,425.00
2023-05-19T04:56:20.461Z,424.00
2023-05-19T04:57:20.517Z,424.00
2023-05-19T04:58:20.586Z,424.00
2023-05-19T04:59:20.639Z,426.00
2023-05-19T05:00:20.693Z,425.00
2023-05-19T05:01:20.785Z,426.00
2023-05-19T05:02:20.902Z,425.00
2023-05-19T05:03:20.933Z,422.00
2023-05-19T05:04:20.898Z,423.00
2023-05-19T05:05:20.966Z,424.00
2023-05-19T05:06:21.022Z,422.00
2023-05-19T05:07:21.088Z,423.00
2023-05-19T05:08:21.137Z,422.00
2023-05-19T05:09:21.214Z,423.00
2023-05-19T05:10:21.258Z,425.00
2023-05-19T05:11:21.346Z,424.00
2023-05-19T05:12:21.388Z,424.00
2023-05-19T05:13:21.462Z,422.00
2023-05-19T05:14:21.531Z,419.00
2023-05-19T05:15:21.609Z,420.00
2023-05-19T05:16:21.662Z,421.00
2023-05-19T05:17:21.707Z,421.00
2023-05-19T05:18:21.770Z,421.00
2023-05-19T05:19:21.852Z,419.00
2023-05-19T05:20:21.873Z,418.00
2023-05-19T05:21:21.980Z,419.00
2023-05-19T05:22:22.023Z,421.00
2023-05-19T05:23:22.070Z,421.00
2023-05-19T05:24:22.155Z,422.00
2023-05-19T05:25:22.192Z,423.00
2023-05-19T05:26:22.269Z,424.00
2023-05-19T05:27:22.338Z,426.00
2023-05-19T05:28:22.396Z,424.00
2023-05-19T05:29:22.425Z,422.00
2023-05-19T05:30:22.499Z,422.00
2023-05-19T05:31:22.545Z,423.00
2023-05-19T05:32:22.694Z,423.00
2023-05-19T05:33:22.754Z,423.00
2023-05-19T05:34:22.648Z,421.00
2023-05-19T05:35:22.695Z,421.00
2023-05-19T05:36:22.772Z,420.00
2023-05-19T05:37:22.811Z,421.00
2023-05-19T05:38:22.871Z,423.00
2023-05-19T05:39:23.061Z,424.00
2023-05-19T05:40:23.006Z,427.00
2023-05-19T05:41:23.050Z,429.00
2023-05-19T05:42:23.107Z,428.00
2023-05-19T05:43:23.163Z,426.00
2023-05-19T05:44:23.217Z,426.00
2023-05-19T05:45:23.276Z,426.00
2023-05-19T05:46:23.408Z,425.00
2023-05-19T05:47:23.373Z,426.00
2023-05-19T05:48:23.434Z,426.00
2023-05-19T05:49:23.508Z,427.00
2023-05-19T05:50:23.566Z,427.00
2023-05-19T05:51:23.631Z,428.00
2023-05-19T05:52:23.668Z,428.00
2023-05-19T05:53:23.722Z,428.00
2023-05-19T05:54:23.786Z,426.00
2023-05-19T05:55:23.834Z,426.00
2023-05-19T05:56:23.891Z,423.00
2023-05-19T05:57:23.950Z,423.00
2023-05-19T05:58:23.975Z,425.00
2023-05-19T05:59:24.043Z,425.00
2023-05-19T06:00:24.097Z,426.00
2023-05-19T06:01:24.183Z,427.00
2023-05-19T06:02:24.229Z,430.00
2023-05-19T06:03:24.554Z,430.00
2023-05-19T06:04:24.299Z,429.00
2023-05-19T06:05:24.430Z,431.00
2023-05-19T06:06:24.409Z,434.00
2023-05-19T06:07:24.470Z,436.00
2023-05-19T06:08:24.486Z,437.00
2023-05-19T06:09:24.539Z,435.00
2023-05-19T06:10:24.615Z,436.00
2023-05-19T06:11:24.659Z,434.00
2023-05-19T06:12:24.700Z,432.00
2023-05-19T06:13:24.780Z,431.00
2023-05-19T06:14:24.807Z,431.00
2023-05-19T06:15:24.862Z,434.00
2023-05-19T06:16:24.975Z,433.00
2023-05-19T06:17:24.973Z,434.00
2023-05-19T06:18:25.005Z,434.00
2023-05-19T06:19:25.323Z,432.00
2023-05-19T06:20:25.110Z,432.00
2023-05-19T06:21:25.160Z,430.00
2023-05-19T06:22:25.189Z,432.00
2023-05-19T06:23:25.244Z,431.00
2023-05-19T06:24:25.255Z,433.00
2023-05-19T06:25:25.297Z,432.00
2023-05-19T06:26:25.332Z,434.00
2023-05-19T06:27:25.390Z,432.00
2023-05-19T06:28:25.408Z,430.00
2023-05-19T06:29:25.457Z,431.00
2023-05-19T06:30:25.502Z,432.00
2023-05-19T06:31:25.573Z,430.00
2023-05-19T06:32:25.580Z,430.00
2023-05-19T06:33:28.850Z,431.00
2023-05-19T06:34:25.600Z,429.00
2023-05-19T06:35:25.597Z,428.00
2023-05-19T06:36:25.571Z,430.00
2023-05-19T06:37:25.564Z,430.00
2023-05-19T06:38:25.553Z,431.00
2023-05-19T06:39:25.565Z,432.00
2023-05-19T06:40:25.568Z,430.00
2023-05-19T06:41:25.556Z,433.00
2023-05-19T06:42:25.581Z,429.00
2023-05-19T06:43:25.519Z,425.00
2023-05-19T06:44:25.530Z,425.00
2023-05-19T06:45:25.526Z,424.00
2023-05-19T06:46:25.599Z,421.00
2023-05-19T06:47:25.559Z,423.00
2023-05-19T06:48:25.493Z,424.00
2023-05-19T06:49:25.488Z,423.00
2023-05-19T06:50:25.490Z,425.00
2023-05-19T06:51:25.475Z,427.00
2023-05-19T06:52:25.453Z,428.00
2023-05-19T06:53:25.450Z,424.00
2023-05-19T06:54:25.434Z,425.00
2023-05-19T06:55:25.433Z,426.00
2023-05-19T06:56:25.447Z,428.00
2023-05-19T06:57:25.433Z,428.00
2023-05-19T06:58:25.431Z,428.00
2023-05-19T06:59:25.434Z,427.00
2023-05-19T07:00:25.400Z,428.00
2023-05-19T07:01:25.405Z,429.00
2023-05-19T07:02:25.486Z,428.00
2023-05-19T07:03:25.520Z,429.00
2023-05-19T07:04:25.372Z,433.00
2023-05-19T07:05:25.371Z,433.00
2023-05-19T07:06:25.375Z,430.00
2023-05-19T07:07:25.358Z,431.00
2023-05-19T07:08:25.364Z,430.00
2023-05-19T07:09:25.341Z,428.00
2023-05-19T07:10:25.350Z,429.00
2023-05-19T07:11:25.358Z,429.00
2023-05-19T07:12:25.330Z,432.00
2023-05-19T07:13:27.357Z,433.00
2023-05-19T07:14:25.328Z,431.00
2023-05-19T07:15:25.309Z,430.00
2023-05-19T07:16:25.395Z,430.00
2023-05-19T07:17:25.350Z,432.00
2023-05-19T07:18:25.309Z,434.00
2023-05-19T07:19:25.387Z,434.00
2023-05-19T07:20:25.292Z,432.00
2023-05-19T07:21:25.306Z,432.00
2023-05-19T07:22:25.327Z,430.00
2023-05-19T07:23:25.356Z,431.00
2023-05-19T07:24:25.369Z,433.00
2023-05-19T07:25:25.386Z,431.00
2023-05-19T07:26:25.404Z,430.00
2023-05-19T07:27:25.469Z,430.00
2023-05-19T07:28:25.446Z,427.00
2023-05-19T07:29:25.441Z,426.00
2023-05-19T07:30:25.518Z,425.00
2023-05-19T07:31:25.579Z,425.00
2023-05-19T07:32:25.590Z,425.00
2023-05-19T07:33:25.501Z,424.00
2023-05-19T07:34:25.533Z,421.00
2023-05-19T07:35:25.519Z,419.00
2023-05-19T07:36:25.551Z,421.00
2023-05-19T07:37:25.553Z,422.00
2023-05-19T07:38:25.553Z,425.00
2023-05-19T07:39:25.611Z,427.00
2023-05-19T07:40:25.604Z,425.00
2023-05-19T07:41:25.600Z,423.00
2023-05-19T07:42:25.592Z,425.00
2023-05-19T07:43:25.610Z,423.00
2023-05-19T07:44:25.623Z,424.00
2023-05-19T07:45:25.623Z,422.00
2023-05-19T07:46:25.758Z,423.00
2023-05-19T07:47:25.979Z,422.00
2023-05-19T07:48:25.699Z,422.00
2023-05-19T07:49:25.670Z,422.00
2023-05-19T07:50:25.688Z,420.00
2023-05-19T07:51:25.680Z,421.00
2023-05-19T07:52:25.699Z,421.00
2023-05-19T07:53:25.719Z,423.00
2023-05-19T07:54:25.724Z,422.00
2023-05-19T07:55:25.745Z,421.00
2023-05-19T07:56:25.783Z,418.00
2023-05-19T07:57:25.764Z,419.00
2023-05-19T07:58:25.790Z,421.00
2023-05-19T07:59:25.802Z,422.00
2023-05-19T08:00:25.792Z,423.00
2023-05-19T08:01:25.820Z,423.00
2023-05-19T08:02:25.926Z,424.00
2023-05-19T08:03:25.968Z,421.00
2023-05-19T08:04:25.865Z,422.00
2023-05-19T08:05:25.853Z,420.00
2023-05-19T08:06:25.840Z,417.00
2023-05-19T08:07:25.869Z,418.00
2023-05-19T08:08:25.876Z,417.00
2023-05-19T08:09:25.889Z,417.00
2023-05-19T08:10:25.898Z,417.00
2023-05-19T08:11:25.873Z,418.00
2023-05-19T08:12:25.902Z,416.00
2023-05-19T08:13:25.890Z,417.00
2023-05-19T08:14:25.899Z,420.00
2023-05-19T08:15:25.933Z,420.00
2023-05-19T08:16:25.933Z,417.00
2023-05-19T08:17:25.943Z,417.00
2023-05-19T08:18:25.880Z,415.00
2023-05-19T08:19:25.914Z,413.00
2023-05-19T08:20:25.883Z,413.00
2023-05-19T08:21:25.898Z,412.00
2023-05-19T08:22:25.940Z,412.00
2023-05-19T08:23:25.985Z,411.00
2023-05-19T08:24:25.987Z,413.00
2023-05-19T08:25:25.984Z,411.00
2023-05-19T08:26:25.982Z,414.00
2023-05-19T08:27:25.976Z,413.00
2023-05-19T08:28:25.972Z,414.00
2023-05-19T08:29:25.976Z,415.00
2023-05-19T08:30:25.983Z,415.00
2023-05-19T08:31:26.021Z,415.00
2023-05-19T08:32:26.023Z,415.00
2023-05-19T08:33:25.977Z,415.00
2023-05-19T08:34:25.971Z,416.00
2023-05-19T08:35:25.960Z,416.00
2023-05-19T08:36:25.972Z,418.00
2023-05-19T08:37:25.965Z,416.00
2023-05-19T08:38:25.977Z,417.00
2023-05-19T08:39:25.968Z,415.00
2023-05-19T08:40:25.974Z,416.00
2023-05-19T08:41:25.985Z,416.00
2023-05-19T08:42:25.995Z,416.00
2023-05-19T08:43:26.019Z,417.00
2023-05-19T08:44:26.005Z,416.00
2023-05-19T08:45:26.016Z,418.00
2023-05-19T08:46:26.138Z,418.00
2023-05-19T08:47:26.047Z,418.00
2023-05-19T08:48:26.068Z,417.00
2023-05-19T08:49:26.053Z,416.00
2023-05-19T08:50:26.048Z,413.00
2023-05-19T08:51:26.080Z,414.00
2023-05-19T08:52:26.092Z,414.00
2023-05-19T08:54:27.081Z,416.00
2023-05-19T08:55:26.080Z,413.00
2023-05-19T08:56:26.076Z,413.00
2023-05-19T08:57:26.071Z,415.00
2023-05-19T08:58:26.879Z,415.00
2023-05-19T08:59:26.150Z,415.00
2023-05-19T09:00:26.166Z,414.00
2023-05-19T09:01:26.201Z,414.00
2023-05-19T09:02:26.192Z,413.00
2023-05-19T09:03:26.296Z,414.00
2023-05-19T09:04:27.693Z,415.00
2023-05-19T09:05:26.236Z,417.00
2023-05-19T09:06:26.188Z,416.00
2023-05-19T09:07:26.178Z,416.00
2023-05-19T09:08:26.166Z,413.00
2023-05-19T09:09:26.180Z,412.00
2023-05-19T09:10:27.168Z,416.00
2023-05-19T09:11:26.158Z,418.00
2023-05-19T09:12:26.144Z,421.00
2023-05-19T09:13:26.162Z,420.00
2023-05-19T09:14:26.224Z,415.00
2023-05-19T09:15:26.300Z,412.00
2023-05-19T09:16:27.899Z,412.00
2023-05-19T09:17:26.363Z,413.00
2023-05-19T09:18:26.282Z,412.00
2023-05-19T09:19:26.351Z,414.00
2023-05-19T09:20:26.272Z,414.00
2023-05-19T09:21:26.244Z,416.00
2023-05-19T09:22:26.240Z,417.00
2023-05-19T09:23:26.231Z,419.00
2023-05-19T09:24:26.284Z,418.00
2023-05-19T09:25:26.231Z,418.00
2023-05-19T09:26:26.212Z,416.00
2023-05-19T09:27:26.203Z,417.00
2023-05-19T09:28:26.216Z,416.00
2023-05-19T09:29:26.187Z,420.00
2023-05-19T09:30:26.209Z,421.00
2023-05-19T09:31:26.193Z,422.00
2023-05-19T09:32:26.323Z,423.00
2023-05-19T09:33:26.159Z,421.00
2023-05-19T09:34:26.177Z,419.00
2023-05-19T09:35:26.145Z,418.00
2023-05-19T09:36:26.154Z,417.00
2023-05-19T09:37:26.149Z,418.00
2023-05-19T09:38:26.149Z,419.00
2023-05-19T09:39:26.338Z,417.00
2023-05-19T09:40:26.140Z,415.00
2023-05-19T09:41:26.118Z,412.00
2023-05-19T09:42:26.116Z,414.00
2023-05-19T09:43:26.108Z,415.00
2023-05-19T09:44:26.102Z,413.00
2023-05-19T09:45:26.085Z,413.00
2023-05-19T09:46:26.122Z,411.00
2023-05-19T09:47:26.175Z,411.00
2023-05-19T09:48:26.151Z,412.00
2023-05-19T09:49:26.222Z,414.00
2023-05-19T09:50:26.258Z,415.00
2023-05-19T09:51:26.318Z,419.00
2023-05-19T09:52:26.406Z,418.00
2023-05-19T09:53:26.460Z,415.00
2023-05-19T09:54:26.499Z,415.00
2023-05-19T09:55:26.591Z,413.00
2023-05-19T09:56:26.638Z,411.00
2023-05-19T09:57:26.690Z,409.00
2023-05-19T09:58:26.753Z,411.00
2023-05-19T09:59:27.551Z,412.00
2023-05-19T10:00:26.854Z,411.00
2023-05-19T10:01:26.995Z,412.00
2023-05-19T10:02:27.027Z,413.00
2023-05-19T10:03:27.015Z,416.00
2023-05-19T10:04:27.135Z,417.00
2023-05-19T10:05:27.164Z,417.00
2023-05-19T10:06:27.176Z,419.00
2023-05-19T10:07:27.199Z,419.00
2023-05-19T10:08:27.208Z,417.00
2023-05-19T10:09:27.268Z,416.00
2023-05-19T10:10:27.284Z,416.00
2023-05-19T10:11:27.322Z,414.00
2023-05-19T10:12:27.326Z,415.00
2023-05-19T10:13:27.350Z,416.00
2023-05-19T10:14:27.394Z,414.00
2023-05-19T10:15:27.403Z,416.00
2023-05-19T10:16:27.455Z,417.00
2023-05-19T10:17:27.467Z,419.00
2023-05-19T10:18:27.451Z,421.00
2023-05-19T10:19:27.639Z,422.00
2023-05-19T10:20:27.498Z,422.00
2023-05-19T10:21:27.512Z,422.00
2023-05-19T10:22:27.530Z,422.00
2023-05-19T10:23:27.553Z,422.00
2023-05-19T10:24:27.560Z,418.00
2023-05-19T10:25:27.560Z,417.00
2023-05-19T10:26:27.550Z,415.00
2023-05-19T10:27:27.543Z,416.00
2023-05-19T10:28:27.539Z,417.00
2023-05-19T10:29:27.540Z,419.00
2023-05-19T10:30:27.538Z,419.00
2023-05-19T10:31:27.577Z,417.00
2023-05-19T10:32:27.669Z,417.00
2023-05-19T10:33:27.552Z,417.00
2023-05-19T10:34:27.535Z,417.00
2023-05-19T10:35:27.543Z,418.00
2023-05-19T10:36:27.534Z,417.00
2023-05-19T10:37:27.544Z,416.00
2023-05-19T10:38:27.561Z,415.00
2023-05-19T10:39:27.587Z,414.00
2023-05-19T10:40:27.613Z,415.00
2023-05-19T10:41:27.653Z,415.00
2023-05-19T10:42:27.680Z,417.00
2023-05-19T10:43:27.699Z,421.00
2023-05-19T10:44:27.742Z,422.00
2023-05-19T10:45:27.791Z,421.00
2023-05-19T10:46:27.874Z,421.00
2023-05-19T10:47:27.948Z,418.00
2023-05-19T10:48:27.937Z,419.00
2023-05-19T10:49:28.010Z,420.00
2023-05-19T10:50:28.069Z,419.00
2023-05-19T10:51:28.119Z,420.00
2023-05-19T10:52:28.185Z,419.00
2023-05-19T10:53:28.217Z,420.00
2023-05-19T10:54:28.311Z,420.00
2023-05-19T10:55:28.353Z,420.00
2023-05-19T10:56:28.402Z,421.00
2023-05-19T10:57:28.519Z,421.00
2023-05-19T10:58:28.535Z,417.00
2023-05-19T10:59:29.628Z,417.00
2023-05-19T11:00:28.667Z,419.00
2023-05-19T11:01:28.747Z,419.00
2023-05-19T11:02:28.835Z,421.00
2023-05-19T11:03:29.044Z,419.00
2023-05-19T11:04:28.937Z,420.00
2023-05-19T11:05:28.965Z,422.00
2023-05-19T11:06:29.050Z,420.00
2023-05-19T11:07:29.086Z,419.00
2023-05-19T11:08:29.145Z,419.00
2023-05-19T11:09:39.737Z,423.00
2023-05-19T11:10:30.206Z,421.00
2023-05-19T11:11:29.194Z,418.00
2023-05-19T11:12:29.197Z,418.00
2023-05-19T11:13:29.182Z,418.00
2023-05-19T11:14:29.167Z,417.00
2023-05-19T11:15:29.217Z,415.00
2023-05-19T11:16:29.161Z,416.00
2023-05-19T11:17:29.234Z,414.00
2023-05-19T11:18:29.135Z,413.00
2023-05-19T11:19:29.163Z,414.00
2023-05-19T11:20:29.143Z,413.00
2023-05-19T11:21:29.297Z,412.00
2023-05-19T11:22:29.271Z,411.00
2023-05-19T11:23:29.382Z,411.00
2023-05-19T11:24:29.369Z,411.00
2023-05-19T11:25:29.450Z,413.00
2023-05-19T11:26:29.507Z,416.00
2023-05-19T11:27:29.577Z,418.00
2023-05-19T11:28:29.609Z,415.00
2023-05-19T11:29:29.685Z,413.00
2023-05-19T11:30:29.730Z,414.00
2023-05-19T11:31:29.861Z,415.00
2023-05-19T11:32:29.994Z,415.00
2023-05-19T11:33:29.924Z,416.00
2023-05-19T11:34:29.964Z,418.00
2023-05-19T11:35:30.114Z,418.00
2023-05-19T11:36:30.097Z,417.00
2023-05-19T11:37:30.183Z,417.00
2023-05-19T11:38:30.469Z,416.00
2023-05-19T11:39:30.293Z,416.00
2023-05-19T11:40:30.331Z,419.00
2023-05-19T11:41:30.385Z,420.00
2023-05-19T11:42:30.410Z,418.00
2023-05-19T11:43:30.476Z,421.00
2023-05-19T11:44:30.502Z,419.00
2023-05-19T11:45:30.560Z,417.00
2023-05-19T11:46:30.606Z,416.00
2023-05-19T11:47:33.986Z,416.00
2023-05-19T11:48:31.643Z,416.00
2023-05-19T11:49:30.584Z,415.00
2023-05-19T11:50:30.604Z,414.00
2023-05-19T11:51:30.576Z,414.00
2023-05-19T11:52:30.572Z,414.00
2023-05-19T11:53:30.927Z,416.00
2023-05-19T11:54:30.543Z,414.00
2023-05-19T11:55:30.562Z,412.00
2023-05-19T11:56:30.533Z,412.00
2023-05-19T11:57:30.518Z,413.00
2023-05-19T11:58:30.524Z,413.00
2023-05-19T11:59:30.950Z,413.00
2023-05-19T12:00:30.513Z,413.00
2023-05-19T12:01:30.493Z,415.00
2023-05-19T12:02:30.563Z,414.00
2023-05-19T12:03:30.583Z,413.00
2023-05-19T12:04:30.519Z,412.00
2023-05-19T12:05:30.653Z,415.00
2023-05-19T12:06:30.550Z,416.00
2023-05-19T12:07:30.552Z,414.00
2023-05-19T12:08:30.571Z,415.00
2023-05-19T12:09:30.598Z,414.00
2023-05-19T12:10:30.624Z,413.00
2023-05-19T12:11:30.669Z,411.00
2023-05-19T12:12:30.717Z,411.00
2023-05-19T12:13:30.785Z,411.00
2023-05-19T12:14:30.827Z,410.00
2023-05-19T12:15:31.101Z,410.00
2023-05-19T12:16:31.895Z,409.00
2023-05-19T12:17:31.045Z,408.00
2023-05-19T12:18:31.052Z,407.00
2023-05-19T12:19:31.192Z,406.00
2023-05-19T12:20:31.184Z,404.00
2023-05-19T12:21:34.322Z,403.00
2023-05-19T12:22:31.256Z,404.00
2023-05-19T12:23:31.235Z,407.00
2023-05-19T12:24:31.231Z,406.00
2023-05-19T12:25:31.575Z,404.00
2023-05-19T12:26:31.224Z,403.00
2023-05-19T12:27:33.043Z,403.00
2023-05-19T12:28:31.215Z,403.00
2023-05-19T12:29:31.189Z,405.00